Reecon Whale — 9HA2885 — position and weather

sailwx.info

Track history (hours):
 
Tides and Currents Weather Stations Pressure Air Temp Water Temp Dewpoint Dewpoint Depression Visibility Wind Speed Wind Dir Waves Ship Positions

Reecon Whale

Last reported at 2017-Jun-26 12:07 UTC. Time now 2017-Jun-26 14:07 UTC.
Position N 42°07' E 016°24'.

Length 145 m; draft 8.8 m.

Type: Ship. MMSI: 256579000.

Date/timePositionNaut miles runAvg speedWind from/ knotsBaromVisibWave heightAir tempDewpointWater temp
2017-Jun-26 12:07N 42°07' E 016°24'215.5
2017-Jun-26 12:00N 42°06' E 016°26'815.3
2017-Jun-26 11:30N 42°01' E 016°33'815.1
2017-Jun-26 10:59N 41°55' E 016°40'915.1
2017-Jun-26 10:22N 41°48' E 016°48'11815.0
2017-Jun-26 02:31N 40°20' E 018°32'215.3
2017-Jun-26 02:25N 40°18' E 018°33'715.1
2017-Jun-26 01:55N 40°12' E 018°38'8415.1
2017-Jun-25 20:20N 39°04' E 017°35'615.6
2017-Jun-25 19:59N 38°60' E 017°30'5515.0
2017-Jun-25 16:20N 38°21' E 016°41'4813.8
2017-Jun-25 12:50N 37°54' E 015°50'812.9
2017-Jun-25 12:14N 37°56' E 015°41'512.3
2017-Jun-25 11:50N 37°60' E 015°37'513.4
2017-Jun-25 11:29N 38°04' E 015°36'816.7
2017-Jun-25 11:00N 38°13' E 015°36'815.3
2017-Jun-25 10:30N 38°18' E 015°42'714.9
2017-Jun-25 10:01N 38°24' E 015°49'510.3
2017-Jun-25 09:30N 38°27' E 015°54'0 0.1
2017-Jun-25 07:04N 38°27' E 015°54'0 0.0
2017-Jun-25 06:40N 38°27' E 015°54'0 0.0
2017-Jun-24 20:43N 38°27' E 015°54'0 0.0
2017-Jun-24 20:28N 38°27' E 015°54'0 0.0
2017-Jun-24 19:55N 38°27' E 015°54'0 0.0
2017-Jun-24 19:25N 38°27' E 015°54'0 0.0
2017-Jun-24 18:55N 38°27' E 015°54'0 0.0
2017-Jun-24 18:28N 38°27' E 015°54'0 0.0
2017-Jun-24 17:55N 38°27' E 015°54'0 0.0
2017-Jun-24 17:28N 38°27' E 015°54'0 0.0
2017-Jun-24 16:58N 38°27' E 015°54'0 0.0
2017-Jun-24 16:28N 38°27' E 015°54'0 0.0
2017-Jun-24 15:58N 38°27' E 015°54'0 0.0
2017-Jun-24 15:28N 38°27' E 015°54'0 0.0
2017-Jun-24 14:58N 38°27' E 015°54'0 0.0
2017-Jun-24 13:58N 38°27' E 015°54'0 0.0
2017-Jun-24 13:28N 38°27' E 015°54'0 0.0
2017-Jun-24 12:55N 38°27' E 015°54'0 0.0
2017-Jun-24 12:28N 38°27' E 015°54'0 0.0
2017-Jun-24 11:58N 38°27' E 015°54'0 0.0
2017-Jun-24 11:28N 38°27' E 015°54'0 0.0
2017-Jun-24 10:58N 38°27' E 015°54'0 0.0
2017-Jun-24 10:28N 38°27' E 015°54'0 0.0
2017-Jun-24 09:58N 38°27' E 015°54'0 0.0
2017-Jun-24 09:25N 38°27' E 015°54'0 0.0
2017-Jun-24 08:58N 38°27' E 015°54'0 0.0
2017-Jun-24 08:25N 38°27' E 015°54'0 0.0
2017-Jun-24 07:55N 38°27' E 015°54'0 0.0
2017-Jun-24 07:28N 38°27' E 015°54'0 0.0
2017-Jun-24 06:52N 38°27' E 015°54'0 0.0
2017-Jun-24 06:25N 38°27' E 015°54'0 0.0
2017-Jun-24 05:46N 38°27' E 015°54'0 0.0
2017-Jun-24 05:28N 38°27' E 015°54'0 0.0
2017-Jun-24 04:52N 38°27' E 015°54'0 0.0
2017-Jun-24 04:28N 38°27' E 015°54'4 0.2
2017-Jun-23 09:27N 38°25' E 015°50'614.6
2017-Jun-23 09:00N 38°20' E 015°45'813.6
2017-Jun-23 08:26N 38°15' E 015°38'612.4
2017-Jun-23 07:59N 38°09' E 015°36'612.9
2017-Jun-23 07:30N 38°03' E 015°37'612.6
2017-Jun-23 07:00N 37°57' E 015°39'713.2
2017-Jun-23 06:29N 37°54' E 015°47'8413.0
2017-Jun-23 00:00N 38°45' E 017°12'713.4
2017-Jun-22 23:30N 38°50' E 017°18'713.1
2017-Jun-22 22:59N 38°55' E 017°24'613.0
2017-Jun-22 22:30N 38°60' E 017°30'713.0
2017-Jun-22 22:00N 39°04' E 017°35'713.4
2017-Jun-22 21:30N 39°09' E 017°41'712.8
2017-Jun-22 20:59N 39°14' E 017°47'612.9
2017-Jun-22 20:30N 39°18' E 017°53'613.0
2017-Jun-22 20:00N 39°23' E 017°59'713.0
2017-Jun-22 19:29N 39°27' E 018°05'613.1
2017-Jun-22 19:00N 39°32' E 018°11'713.3
2017-Jun-22 18:28N 39°37' E 018°18'613.5
2017-Jun-22 17:59N 39°42' E 018°24'114 2.7
2017-Jun-21 00:22N 41°28' E 017°31'4610.4
2017-Jun-20 19:56N 41°50' E 018°25'510.3
2017-Jun-20 19:29N 41°53' E 018°30'2910.1
2017-Jun-20 16:38N 42°06' E 019°05'293 6.0
2017-Jun-18 15:28N 37°53' E 015°51'612.3
2017-Jun-18 15:00N 37°54' E 015°43'1211.8
2017-Jun-18 13:59N 38°05' E 015°36'713.9
2017-Jun-18 13:31N 38°11' E 015°35'22 1.1
2017-Jun-17 17:48N 38°28' E 015°55'0 0.0
2017-Jun-17 17:27N 38°28' E 015°55'0 0.0
2017-Jun-17 16:57N 38°28' E 015°55'0 0.0
2017-Jun-17 16:21N 38°28' E 015°55'0 0.0
2017-Jun-17 15:57N 38°28' E 015°55'0 0.0
2017-Jun-17 15:27N 38°28' E 015°55'0 0.0
2017-Jun-17 14:57N 38°28' E 015°55'0 0.0
2017-Jun-17 13:51N 38°28' E 015°55'0 0.0
2017-Jun-17 13:27N 38°28' E 015°55'0 0.0
2017-Jun-17 12:57N 38°28' E 015°55'0 0.0
2017-Jun-17 12:27N 38°28' E 015°55'0 0.0
2017-Jun-17 11:57N 38°28' E 015°55'0 0.0
2017-Jun-17 11:27N 38°28' E 015°55'0 0.0
2017-Jun-17 10:57N 38°28' E 015°55'0 0.0
2017-Jun-17 10:30N 38°28' E 015°55'0 0.0
2017-Jun-17 10:00N 38°28' E 015°55'0 0.0
2017-Jun-17 09:30N 38°28' E 015°55'0 0.0
2017-Jun-17 09:00N 38°28' E 015°55'0 0.0
2017-Jun-17 08:27N 38°28' E 015°55'0 0.0
2017-Jun-17 07:45N 38°28' E 015°55'0 0.0
2017-Jun-16 17:57N 38°28' E 015°55'0 0.0
2017-Jun-16 17:27N 38°28' E 015°55'0 0.0
2017-Jun-16 16:57N 38°28' E 015°55'0 0.0
2017-Jun-16 14:09N 38°28' E 015°55'0 0.1
2017-Jun-16 13:30N 38°28' E 015°55'2 3.3
2017-Jun-16 13:00N 38°27' E 015°53'3 5.6
2017-Jun-16 12:28N 38°26' E 015°49'  
Track history (hours):
 
Tides and Currents Weather Stations Pressure Air Temp Water Temp Dewpoint Dewpoint Depression Visibility Wind Speed Wind Dir Waves Ship Positions

Reecon Whale

Last reported at 2017-Jun-26 12:07 UTC. Time now 2017-Jun-26 14:07 UTC.
Position N 42°07' E 016°24'.

Length 145 m; draft 8.8 m.

Type: Ship. MMSI: 256579000.

Date/timePositionNaut miles runAvg speedWind from/ knotsBaromVisibWave heightAir tempDewpointWater temp
2017-Jun-26 12:07N 42°07' E 016°24'215.5
2017-Jun-26 12:00N 42°06' E 016°26'815.3
2017-Jun-26 11:30N 42°01' E 016°33'815.1
2017-Jun-26 10:59N 41°55' E 016°40'915.1
2017-Jun-26 10:22N 41°48' E 016°48'11815.0
2017-Jun-26 02:31N 40°20' E 018°32'215.3
2017-Jun-26 02:25N 40°18' E 018°33'715.1
2017-Jun-26 01:55N 40°12' E 018°38'8415.1
2017-Jun-25 20:20N 39°04' E 017°35'615.6
2017-Jun-25 19:59N 38°60' E 017°30'5515.0
2017-Jun-25 16:20N 38°21' E 016°41'4813.8
2017-Jun-25 12:50N 37°54' E 015°50'812.9
2017-Jun-25 12:14N 37°56' E 015°41'512.3
2017-Jun-25 11:50N 37°60' E 015°37'513.4
2017-Jun-25 11:29N 38°04' E 015°36'816.7
2017-Jun-25 11:00N 38°13' E 015°36'815.3
2017-Jun-25 10:30N 38°18' E 015°42'714.9
2017-Jun-25 10:01N 38°24' E 015°49'510.3
2017-Jun-25 09:30N 38°27' E 015°54'0 0.1
2017-Jun-25 07:04N 38°27' E 015°54'0 0.0
2017-Jun-25 06:40N 38°27' E 015°54'0 0.0
2017-Jun-24 20:43N 38°27' E 015°54'0 0.0
2017-Jun-24 20:28N 38°27' E 015°54'0 0.0
2017-Jun-24 19:55N 38°27' E 015°54'0 0.0
2017-Jun-24 19:25N 38°27' E 015°54'0 0.0
2017-Jun-24 18:55N 38°27' E 015°54'0 0.0
2017-Jun-24 18:28N 38°27' E 015°54'0 0.0
2017-Jun-24 17:55N 38°27' E 015°54'0 0.0
2017-Jun-24 17:28N 38°27' E 015°54'0 0.0
2017-Jun-24 16:58N 38°27' E 015°54'0 0.0
2017-Jun-24 16:28N 38°27' E 015°54'0 0.0
2017-Jun-24 15:58N 38°27' E 015°54'0 0.0
2017-Jun-24 15:28N 38°27' E 015°54'0 0.0
2017-Jun-24 14:58N 38°27' E 015°54'0 0.0
2017-Jun-24 13:58N 38°27' E 015°54'0 0.0
2017-Jun-24 13:28N 38°27' E 015°54'0 0.0
2017-Jun-24 12:55N 38°27' E 015°54'0 0.0
2017-Jun-24 12:28N 38°27' E 015°54'0 0.0
2017-Jun-24 11:58N 38°27' E 015°54'0 0.0
2017-Jun-24 11:28N 38°27' E 015°54'0 0.0
2017-Jun-24 10:58N 38°27' E 015°54'0 0.0
2017-Jun-24 10:28N 38°27' E 015°54'0 0.0
2017-Jun-24 09:58N 38°27' E 015°54'0 0.0
2017-Jun-24 09:25N 38°27' E 015°54'0 0.0
2017-Jun-24 08:58N 38°27' E 015°54'0 0.0
2017-Jun-24 08:25N 38°27' E 015°54'0 0.0
2017-Jun-24 07:55N 38°27' E 015°54'0 0.0
2017-Jun-24 07:28N 38°27' E 015°54'0 0.0
2017-Jun-24 06:52N 38°27' E 015°54'0 0.0
2017-Jun-24 06:25N 38°27' E 015°54'0 0.0
2017-Jun-24 05:46N 38°27' E 015°54'0 0.0
2017-Jun-24 05:28N 38°27' E 015°54'0 0.0
2017-Jun-24 04:52N 38°27' E 015°54'0 0.0
2017-Jun-24 04:28N 38°27' E 015°54'4 0.2
2017-Jun-23 09:27N 38°25' E 015°50'614.6
2017-Jun-23 09:00N 38°20' E 015°45'813.6
2017-Jun-23 08:26N 38°15' E 015°38'612.4
2017-Jun-23 07:59N 38°09' E 015°36'612.9
2017-Jun-23 07:30N 38°03' E 015°37'612.6
2017-Jun-23 07:00N 37°57' E 015°39'713.2
2017-Jun-23 06:29N 37°54' E 015°47'8413.0
2017-Jun-23 00:00N 38°45' E 017°12'713.4
2017-Jun-22 23:30N 38°50' E 017°18'713.1
2017-Jun-22 22:59N 38°55' E 017°24'613.0
2017-Jun-22 22:30N 38°60' E 017°30'713.0
2017-Jun-22 22:00N 39°04' E 017°35'713.4
2017-Jun-22 21:30N 39°09' E 017°41'712.8
2017-Jun-22 20:59N 39°14' E 017°47'612.9
2017-Jun-22 20:30N 39°18' E 017°53'613.0
2017-Jun-22 20:00N 39°23' E 017°59'713.0
2017-Jun-22 19:29N 39°27' E 018°05'613.1
2017-Jun-22 19:00N 39°32' E 018°11'713.3
2017-Jun-22 18:28N 39°37' E 018°18'613.5
2017-Jun-22 17:59N 39°42' E 018°24'114 2.7
2017-Jun-21 00:22N 41°28' E 017°31'4610.4
2017-Jun-20 19:56N 41°50' E 018°25'510.3
2017-Jun-20 19:29N 41°53' E 018°30'2910.1
2017-Jun-20 16:38N 42°06' E 019°05'293 6.0
2017-Jun-18 15:28N 37°53' E 015°51'612.3
2017-Jun-18 15:00N 37°54' E 015°43'1211.8
2017-Jun-18 13:59N 38°05' E 015°36'713.9
2017-Jun-18 13:31N 38°11' E 015°35'22 1.1
2017-Jun-17 17:48N 38°28' E 015°55'0 0.0
2017-Jun-17 17:27N 38°28' E 015°55'0 0.0
2017-Jun-17 16:57N 38°28' E 015°55'0 0.0
2017-Jun-17 16:21N 38°28' E 015°55'0 0.0
2017-Jun-17 15:57N 38°28' E 015°55'0 0.0
2017-Jun-17 15:27N 38°28' E 015°55'0 0.0
2017-Jun-17 14:57N 38°28' E 015°55'0 0.0
2017-Jun-17 13:51N 38°28' E 015°55'0 0.0
2017-Jun-17 13:27N 38°28' E 015°55'0 0.0
2017-Jun-17 12:57N 38°28' E 015°55'0 0.0
2017-Jun-17 12:27N 38°28' E 015°55'0 0.0
2017-Jun-17 11:57N 38°28' E 015°55'0 0.0
2017-Jun-17 11:27N 38°28' E 015°55'0 0.0
2017-Jun-17 10:57N 38°28' E 015°55'0 0.0
2017-Jun-17 10:30N 38°28' E 015°55'0 0.0
2017-Jun-17 10:00N 38°28' E 015°55'0 0.0
2017-Jun-17 09:30N 38°28' E 015°55'0 0.0
2017-Jun-17 09:00N 38°28' E 015°55'0 0.0
2017-Jun-17 08:27N 38°28' E 015°55'0 0.0
2017-Jun-17 07:45N 38°28' E 015°55'0 0.0
2017-Jun-16 17:57N 38°28' E 015°55'0 0.0
2017-Jun-16 17:27N 38°28' E 015°55'0 0.0
2017-Jun-16 16:57N 38°28' E 015°55'0 0.0
2017-Jun-16 14:09N 38°28' E 015°55'0 0.1
2017-Jun-16 13:30N 38°28' E 015°55'2 3.3
2017-Jun-16 13:00N 38°27' E 015°53'3 5.6
2017-Jun-16 12:28N 38°26' E 015°49'  

Dump ship's entire track history